Time;durP1;ratioP1;P1;durP2;ratioP2;P2;SDS_P1;SDS_P2;PMS_P1;PMS_P2;Temp;Humidity;BMP_temperature;BMP_pressure;BME280_temperature;BME280_humidity;BME280_pressure;Samples;Min_cycle;Max_cycle;Signal;HPM_P1;HPM_P2
2022/08/07 00:00:19;;;;;;;;;;;25.50;86.00;;;;;;5082199;28;19931;-64
2022/08/07 00:02:44;;;;;;;;;;;25.50;86.00;;;;;;5099937;28;20279;-64
2022/08/07 00:05:10;;;;;;;;;;;25.60;86.50;;;;;;5082156;28;19920;-64
2022/08/07 00:07:35;;;;;;;;;;;25.60;86.00;;;;;;5100454;28;19912;-64
2022/08/07 00:10:01;;;;;;;;;;;25.50;85.90;;;;;;5100093;28;19912;-64
2022/08/07 00:12:26;;;;;;;;;;;25.50;86.00;;;;;;5099944;28;19961;-64
2022/08/07 00:14:52;;;;;;;;;;;25.50;86.00;;;;;;5100046;28;19912;-64
2022/08/07 00:17:17;;;;;;;;;;;25.50;86.00;;;;;;5100076;28;20244;-64
2022/08/07 00:19:44;;;;;;;;;;;25.50;86.00;;;;;;5097188;28;19915;-64
2022/08/07 00:22:10;;;;;;;;;;;25.50;86.00;;;;;;5097471;28;19999;-65
2022/08/07 00:24:35;;;;;;;;;;;25.50;86.10;;;;;;5097080;28;19970;-64
2022/08/07 00:27:01;;;;;;;;;;;25.50;86.00;;;;;;5096945;28;19912;-64
2022/08/07 00:29:28;;;;;;;;;;;25.50;86.00;;;;;;5096706;28;19908;-64
2022/08/07 00:31:58;;;;;;;;;;;25.50;86.00;;;;;;5096984;28;19908;-64
2022/08/07 00:34:27;;;;;;;;;;;25.50;86.10;;;;;;5096904;28;19908;-64
2022/08/07 00:36:53;;;;;;;;;;;25.50;86.10;;;;;;5096763;28;20282;-64
2022/08/07 00:39:18;;;;;;;;;;;25.50;86.10;;;;;;5096496;28;19908;-64
2022/08/07 00:41:56;;;;;;;;;;;25.50;86.00;;;;;;5078638;28;19908;-64
2022/08/07 00:44:22;;;;;;;;;;;25.50;86.10;;;;;;5078592;28;19916;-64
2022/08/07 00:46:48;;;;;;;;;;;25.50;86.10;;;;;;5096267;28;19919;-64
2022/08/07 00:49:14;;;;;;;;;;;25.50;86.00;;;;;;5078548;28;19912;-64
2022/08/07 00:51:39;;;;;;;;;;;25.50;86.10;;;;;;5112315;28;19908;-64
2022/08/07 00:54:05;;;;;;;;;;;25.50;86.00;;;;;;5096442;28;19908;-64
2022/08/07 00:56:30;;;;;;;;;;;25.50;86.00;;;;;;5078177;28;20366;-64
2022/08/07 00:58:56;;;;;;;;;;;25.50;86.00;;;;;;5096381;28;20359;-64
2022/08/07 01:01:22;;;;;;;;;;;25.50;86.00;;;;;;5077940;28;20267;-64
2022/08/07 01:03:48;;;;;;;;;;;25.50;86.10;;;;;;5096298;28;19930;-64
2022/08/07 01:06:15;;;;;;;;;;;25.50;86.00;;;;;;5095853;28;19916;-64
2022/08/07 01:08:40;;;;;;;;;;;25.50;86.00;;;;;;5095971;28;19912;-64
2022/08/07 01:11:06;;;;;;;;;;;25.50;86.10;;;;;;5095742;28;20389;-64
2022/08/07 01:13:32;;;;;;;;;;;25.50;86.00;;;;;;5077998;28;19919;-64
2022/08/07 01:15:58;;;;;;;;;;;25.50;86.00;;;;;;5096091;28;20274;-64
2022/08/07 01:18:23;;;;;;;;;;;25.50;86.00;;;;;;5096372;28;20297;-64
2022/08/07 01:20:52;;;;;;;;;;;25.40;85.90;;;;;;5096065;28;20336;-64
2022/08/07 01:23:18;;;;;;;;;;;25.50;86.00;;;;;;5077777;28;20270;-64
2022/08/07 01:25:44;;;;;;;;;;;25.50;86.00;;;;;;5095722;28;20011;-64
2022/08/07 01:28:10;;;;;;;;;;;25.50;85.90;;;;;;5095788;28;20010;-64
2022/08/07 01:30:36;;;;;;;;;;;25.40;85.80;;;;;;5094650;28;19951;-64
2022/08/07 01:33:01;;;;;;;;;;;25.50;85.90;;;;;;5095688;28;19908;-64
2022/08/07 01:35:27;;;;;;;;;;;25.40;85.80;;;;;;5095411;28;19915;-64
2022/08/07 01:37:52;;;;;;;;;;;25.40;85.90;;;;;;5095666;28;19969;-64
2022/08/07 01:40:19;;;;;;;;;;;25.40;85.90;;;;;;5077489;28;19954;-64
2022/08/07 01:42:44;;;;;;;;;;;25.40;85.80;;;;;;5077417;28;20038;-64
2022/08/07 01:45:10;;;;;;;;;;;25.40;85.90;;;;;;5094993;28;20389;-64
2022/08/07 01:47:36;;;;;;;;;;;25.40;85.90;;;;;;5076913;28;19912;-64
2022/08/07 01:50:01;;;;;;;;;;;25.40;85.90;;;;;;5095052;28;20007;-64
2022/08/07 01:52:29;;;;;;;;;;;25.40;85.90;;;;;;5095062;28;19908;-64
2022/08/07 01:54:55;;;;;;;;;;;25.40;85.90;;;;;;5094983;28;19908;-64
2022/08/07 01:57:24;;;;;;;;;;;25.40;85.90;;;;;;5077270;28;20251;-64
2022/08/07 02:00:00;;;;;;;;;;;25.40;85.80;;;;;;5094860;28;19908;-64
2022/08/07 02:02:37;;;;;;;;;;;25.40;85.90;;;;;;5076847;28;19920;-64
2022/08/07 02:05:04;;;;;;;;;;;25.40;85.90;;;;;;5094968;28;19959;-64
2022/08/07 02:07:33;;;;;;;;;;;25.40;85.90;;;;;;5095088;28;19920;-64
2022/08/07 02:10:00;;;;;;;;;;;25.40;85.90;;;;;;5076817;28;19908;-64
2022/08/07 02:12:27;;;;;;;;;;;25.40;85.90;;;;;;5076780;28;20010;-64
2022/08/07 02:14:54;;;;;;;;;;;25.30;85.80;;;;;;5094910;28;19919;-64
2022/08/07 02:17:21;;;;;;;;;;;25.40;85.90;;;;;;5094898;28;19944;-64
2022/08/07 02:19:48;;;;;;;;;;;25.30;85.80;;;;;;5094870;28;19908;-64
2022/08/07 02:22:15;;;;;;;;;;;25.40;86.00;;;;;;5076675;28;19915;-64
2022/08/07 02:24:42;;;;;;;;;;;25.40;85.80;;;;;;5095028;28;19930;-64
2022/08/07 02:27:08;;;;;;;;;;;25.30;85.80;;;;;;5094423;28;19912;-64
2022/08/07 02:29:34;;;;;;;;;;;25.30;85.80;;;;;;5076538;28;19991;-64
2022/08/07 02:32:00;;;;;;;;;;;25.30;85.80;;;;;;5094725;28;19959;-64
2022/08/07 02:34:27;;;;;;;;;;;25.30;85.80;;;;;;5094270;28;19908;-64
2022/08/07 02:36:53;;;;;;;;;;;25.30;85.80;;;;;;5094532;28;19912;-64
2022/08/07 02:39:19;;;;;;;;;;;25.30;85.80;;;;;;5094262;28;19909;-64
2022/08/07 02:41:45;;;;;;;;;;;25.30;85.80;;;;;;5093867;28;19907;-64
2022/08/07 02:44:10;;;;;;;;;;;25.30;85.80;;;;;;5076393;28;19908;-64
2022/08/07 02:46:36;;;;;;;;;;;25.30;85.80;;;;;;5094041;28;19912;-64
2022/08/07 02:49:02;;;;;;;;;;;25.30;85.80;;;;;;5076277;28;19962;-64
2022/08/07 02:51:30;;;;;;;;;;;25.30;85.90;;;;;;5093962;28;19914;-64
2022/08/07 02:53:56;;;;;;;;;;;25.30;85.80;;;;;;5094436;28;19914;-64
2022/08/07 02:56:25;;;;;;;;;;;25.30;85.90;;;;;;5094593;28;19919;-64
2022/08/07 02:58:52;;;;;;;;;;;25.30;85.80;;;;;;5094590;28;19912;-64
2022/08/07 03:01:18;;;;;;;;;;;25.30;85.80;;;;;;5093875;28;19920;-64
2022/08/07 03:03:45;;;;;;;;;;;25.30;85.90;;;;;;5076135;28;19908;-64
2022/08/07 03:06:10;;;;;;;;;;;25.30;85.90;;;;;;5093919;28;19937;-64
2022/08/07 03:08:36;;;;;;;;;;;25.30;86.00;;;;;;5094242;28;19974;-64
2022/08/07 03:11:02;;;;;;;;;;;25.20;85.90;;;;;;5094106;28;20002;-64
2022/08/07 03:13:28;;;;;;;;;;;25.30;85.90;;;;;;5076068;28;19909;-64
2022/08/07 03:15:54;;;;;;;;;;;25.20;85.90;;;;;;5093856;28;19908;-64
2022/08/07 03:18:20;;;;;;;;;;;25.20;85.80;;;;;;5094085;28;19915;-64
2022/08/07 03:20:46;;;;;;;;;;;25.20;85.90;;;;;;5093808;28;19912;-64
2022/08/07 03:23:12;;;;;;;;;;;25.20;85.90;;;;;;5093816;28;19919;-64
2022/08/07 03:25:39;;;;;;;;;;;25.20;85.90;;;;;;5093693;28;19912;-64
2022/08/07 03:28:06;;;;;;;;;;;25.20;85.90;;;;;;5094007;28;19912;-64
2022/08/07 03:30:32;;;;;;;;;;;25.20;85.90;;;;;;5093653;28;20328;-64
2022/08/07 03:32:59;;;;;;;;;;;25.20;85.80;;;;;;5093961;28;19916;-64
2022/08/07 03:35:26;;;;;;;;;;;25.20;85.90;;;;;;5094297;28;19958;-64
2022/08/07 03:37:56;;;;;;;;;;;25.20;85.90;;;;;;5093621;28;19995;-64
2022/08/07 03:40:22;;;;;;;;;;;25.20;85.90;;;;;;5093618;28;20373;-64
2022/08/07 03:42:49;;;;;;;;;;;25.20;85.90;;;;;;5075780;28;19908;-64
2022/08/07 03:45:15;;;;;;;;;;;25.20;85.90;;;;;;5093817;28;19962;-64
2022/08/07 03:47:40;;;;;;;;;;;25.20;85.90;;;;;;5093546;28;20358;-64
2022/08/07 03:50:06;;;;;;;;;;;25.20;85.90;;;;;;5093424;28;20008;-64
2022/08/07 03:52:32;;;;;;;;;;;25.20;85.90;;;;;;5093331;28;19919;-64
2022/08/07 03:54:59;;;;;;;;;;;25.20;85.90;;;;;;5095769;28;19915;-64
2022/08/07 03:57:25;;;;;;;;;;;25.10;85.80;;;;;;5097300;28;20390;-63
2022/08/07 03:59:51;;;;;;;;;;;25.20;86.00;;;;;;5079405;28;20310;-64
2022/08/07 04:02:17;;;;;;;;;;;25.10;86.40;;;;;;5097483;28;19920;-64
2022/08/07 04:04:42;;;;;;;;;;;25.10;86.00;;;;;;5097303;28;19915;-64
2022/08/07 04:07:08;;;;;;;;;;;25.10;86.00;;;;;;5097112;28;20328;-64
2022/08/07 04:09:38;;;;;;;;;;;25.10;85.80;;;;;;5097014;28;20374;-64
2022/08/07 04:12:04;;;;;;;;;;;25.10;85.80;;;;;;5097324;28;20270;-64
2022/08/07 04:14:30;;;;;;;;;;;25.10;85.90;;;;;;5079088;28;19908;-64
2022/08/07 04:16:56;;;;;;;;;;;25.10;85.90;;;;;;5097161;28;19919;-64
2022/08/07 04:19:24;;;;;;;;;;;25.10;85.90;;;;;;5096876;28;19991;-64
2022/08/07 04:21:50;;;;;;;;;;;25.10;85.90;;;;;;5078932;28;20275;-64
2022/08/07 04:24:15;;;;;;;;;;;25.10;85.90;;;;;;5078555;28;19908;-64
2022/08/07 04:26:41;;;;;;;;;;;25.10;85.90;;;;;;5078752;28;19912;-64
2022/08/07 04:29:09;;;;;;;;;;;25.10;85.90;;;;;;5096949;28;20430;-64
2022/08/07 04:31:38;;;;;;;;;;;25.10;85.80;;;;;;5078798;28;19909;-64
2022/08/07 04:34:05;;;;;;;;;;;25.10;85.80;;;;;;5096615;28;19915;-64
2022/08/07 04:36:31;;;;;;;;;;;25.10;85.90;;;;;;5078661;28;19908;-64
2022/08/07 04:38:56;;;;;;;;;;;25.10;85.80;;;;;;5096438;28;19953;-64
2022/08/07 04:41:22;;;;;;;;;;;25.10;85.80;;;;;;5078653;28;19912;-64
2022/08/07 04:43:49;;;;;;;;;;;25.10;85.90;;;;;;5096708;28;19922;-64
2022/08/07 04:46:21;;;;;;;;;;;25.10;85.80;;;;;;5096307;28;20003;-64
2022/08/07 04:49:02;;;;;;;;;;;25.10;85.80;;;;;;5096666;28;19916;-64
2022/08/07 04:51:36;;;;;;;;;;;25.10;85.90;;;;;;5078687;28;20275;-64
2022/08/07 04:54:16;;;;;;;;;;;25.10;85.80;;;;;;5096118;28;19908;-64
2022/08/07 04:56:48;;;;;;;;;;;25.10;85.80;;;;;;5096415;28;19908;-64
2022/08/07 04:59:16;;;;;;;;;;;25.10;85.90;;;;;;5096181;28;19977;-64
2022/08/07 05:01:45;;;;;;;;;;;25.10;85.80;;;;;;5095775;28;20372;-64
2022/08/07 05:04:14;;;;;;;;;;;25.10;85.70;;;;;;5096281;28;19908;-64
2022/08/07 05:06:45;;;;;;;;;;;25.10;85.90;;;;;;5095880;28;19957;-64
2022/08/07 05:09:19;;;;;;;;;;;25.10;85.80;;;;;;5095943;28;19916;-64
2022/08/07 05:11:47;;;;;;;;;;;25.10;85.80;;;;;;5096250;28;19909;-64
2022/08/07 05:14:18;;;;;;;;;;;25.10;85.80;;;;;;5096402;28;19935;-64
2022/08/07 05:16:47;;;;;;;;;;;25.00;85.80;;;;;;5096102;28;19947;-64
2022/08/07 05:19:14;;;;;;;;;;;25.10;85.80;;;;;;5095681;28;19913;-64
2022/08/07 05:21:43;;;;;;;;;;;25.00;85.70;;;;;;5096000;28;19912;-64
2022/08/07 05:24:10;;;;;;;;;;;25.10;85.80;;;;;;5095845;28;19908;-64
2022/08/07 05:26:37;;;;;;;;;;;25.10;85.70;;;;;;5095627;28;19912;-64
2022/08/07 05:29:04;;;;;;;;;;;25.00;85.70;;;;;;5095739;28;19924;-64
2022/08/07 05:31:37;;;;;;;;;;;25.00;85.80;;;;;;5095449;28;20275;-64
2022/08/07 05:34:04;;;;;;;;;;;25.00;85.70;;;;;;5077524;28;19918;-64
2022/08/07 05:36:32;;;;;;;;;;;25.00;85.70;;;;;;5095750;28;19991;-64
2022/08/07 05:38:58;;;;;;;;;;;25.10;85.70;;;;;;5077463;28;20274;-64
2022/08/07 05:41:24;;;;;;;;;;;25.10;85.60;;;;;;5095363;28;19977;-64
2022/08/07 05:43:51;;;;;;;;;;;25.00;85.80;;;;;;5077302;28;20251;-64
2022/08/07 05:46:19;;;;;;;;;;;25.10;85.70;;;;;;5077182;28;19912;-64
2022/08/07 05:48:45;;;;;;;;;;;25.10;85.60;;;;;;5095348;28;19916;-64
2022/08/07 05:51:11;;;;;;;;;;;25.10;85.50;;;;;;5094978;28;19961;-64
2022/08/07 05:53:36;;;;;;;;;;;25.10;85.50;;;;;;5094953;28;19908;-64
2022/08/07 05:56:03;;;;;;;;;;;25.10;85.50;;;;;;5095214;28;19919;-64
2022/08/07 05:58:29;;;;;;;;;;;25.10;85.50;;;;;;5095186;28;19923;-64
2022/08/07 06:00:56;;;;;;;;;;;25.10;85.60;;;;;;5094977;28;20255;-64
2022/08/07 06:03:22;;;;;;;;;;;25.10;85.50;;;;;;5094752;28;20256;-64
2022/08/07 06:05:48;;;;;;;;;;;25.10;85.50;;;;;;5076759;28;19919;-64
2022/08/07 06:08:15;;;;;;;;;;;25.10;85.40;;;;;;5095061;28;19919;-64
2022/08/07 06:10:41;;;;;;;;;;;25.10;85.50;;;;;;5076748;28;19969;-64
2022/08/07 06:13:07;;;;;;;;;;;25.10;85.50;;;;;;5094795;28;19908;-64
2022/08/07 06:15:34;;;;;;;;;;;25.10;85.40;;;;;;5094828;28;20007;-64
2022/08/07 06:18:00;;;;;;;;;;;25.10;85.30;;;;;;5094059;28;19916;-64
2022/08/07 06:20:26;;;;;;;;;;;25.10;85.40;;;;;;5094645;28;20428;-64
2022/08/07 06:22:52;;;;;;;;;;;25.20;85.40;;;;;;5076644;28;19912;-64
2022/08/07 06:25:18;;;;;;;;;;;25.20;85.30;;;;;;5094681;28;19919;-64
2022/08/07 06:27:43;;;;;;;;;;;25.10;85.20;;;;;;5076396;28;20025;-64
2022/08/07 06:30:09;;;;;;;;;;;25.10;85.30;;;;;;5076421;28;19908;-64
2022/08/07 06:32:35;;;;;;;;;;;25.10;85.30;;;;;;5094551;28;20002;-64
2022/08/07 06:35:01;;;;;;;;;;;25.10;85.30;;;;;;5076367;28;20347;-64
2022/08/07 06:37:26;;;;;;;;;;;25.10;85.10;;;;;;5094575;28;19908;-64
2022/08/07 06:39:52;;;;;;;;;;;25.20;85.20;;;;;;5094356;28;19912;-64
2022/08/07 06:42:19;;;;;;;;;;;25.20;85.20;;;;;;5094422;28;20259;-64
2022/08/07 06:44:46;;;;;;;;;;;25.20;85.20;;;;;;5093976;28;19908;-64
2022/08/07 06:47:11;;;;;;;;;;;25.20;85.20;;;;;;5076075;28;19924;-64
2022/08/07 06:49:37;;;;;;;;;;;25.20;85.20;;;;;;5094336;28;19908;-64
2022/08/07 06:52:03;;;;;;;;;;;25.20;85.10;;;;;;5094085;28;19962;-64
2022/08/07 06:54:30;;;;;;;;;;;25.20;85.00;;;;;;5094089;28;20263;-64
2022/08/07 06:56:55;;;;;;;;;;;25.20;85.10;;;;;;5094377;28;19909;-64
2022/08/07 06:59:24;;;;;;;;;;;25.20;85.00;;;;;;5075950;28;19908;-64
2022/08/07 07:01:51;;;;;;;;;;;25.20;85.00;;;;;;5093729;28;19920;-64
2022/08/07 07:04:16;;;;;;;;;;;25.20;85.10;;;;;;5093842;28;19931;-64
2022/08/07 07:06:43;;;;;;;;;;;25.10;85.00;;;;;;5093588;28;20355;-64
2022/08/07 07:09:16;;;;;;;;;;;25.10;85.00;;;;;;5094017;28;19912;-64
2022/08/07 07:11:47;;;;;;;;;;;25.10;84.90;;;;;;5093972;28;19915;-64
2022/08/07 07:14:14;;;;;;;;;;;25.20;85.10;;;;;;5093683;28;19908;-64
2022/08/07 07:16:41;;;;;;;;;;;25.20;85.10;;;;;;5093631;28;19919;-64
2022/08/07 07:19:07;;;;;;;;;;;25.20;85.00;;;;;;5075956;28;19920;-63
2022/08/07 07:21:35;;;;;;;;;;;25.20;85.00;;;;;;5094004;28;19908;-64
2022/08/07 07:24:01;;;;;;;;;;;25.20;84.90;;;;;;5093911;28;19908;-64
2022/08/07 07:26:28;;;;;;;;;;;25.10;84.80;;;;;;5093421;28;20381;-64
2022/08/07 07:28:56;;;;;;;;;;;25.20;84.80;;;;;;5095952;28;19919;-64
2022/08/07 07:31:25;;;;;;;;;;;25.10;84.80;;;;;;5079558;28;19908;-64
2022/08/07 07:33:53;;;;;;;;;;;25.20;84.90;;;;;;5097463;28;19922;-64
2022/08/07 07:36:19;;;;;;;;;;;25.20;85.00;;;;;;5098210;28;20339;-64
2022/08/07 07:38:44;;;;;;;;;;;25.20;84.80;;;;;;5079540;28;19908;-64
2022/08/07 07:41:11;;;;;;;;;;;25.30;84.70;;;;;;5113492;28;20362;-64
2022/08/07 07:43:40;;;;;;;;;;;25.20;84.70;;;;;;5097603;28;19915;-64
2022/08/07 07:46:06;;;;;;;;;;;25.20;84.80;;;;;;5079175;28;19912;-64
2022/08/07 07:48:31;;;;;;;;;;;25.20;84.80;;;;;;5097643;28;20427;-64
2022/08/07 07:50:58;;;;;;;;;;;25.20;84.80;;;;;;5097273;28;20275;-64
2022/08/07 07:53:24;;;;;;;;;;;25.20;84.70;;;;;;5079437;28;19957;-64
2022/08/07 07:55:51;;;;;;;;;;;25.30;84.70;;;;;;5097488;28;19915;-64
2022/08/07 07:58:18;;;;;;;;;;;25.20;84.60;;;;;;5097505;28;19954;-64
2022/08/07 08:00:44;;;;;;;;;;;25.20;84.50;;;;;;5096951;28;19961;-64
2022/08/07 08:03:12;;;;;;;;;;;25.30;84.50;;;;;;5079052;28;20262;-64
2022/08/07 08:05:40;;;;;;;;;;;25.20;84.50;;;;;;5097176;28;19920;-64
2022/08/07 08:08:06;;;;;;;;;;;25.20;84.50;;;;;;5097128;28;19934;-64
2022/08/07 08:10:32;;;;;;;;;;;25.30;84.50;;;;;;5079082;28;19916;-64
2022/08/07 08:12:59;;;;;;;;;;;25.30;84.50;;;;;;5097351;28;19975;-65
2022/08/07 08:15:26;;;;;;;;;;;25.30;84.40;;;;;;5096742;28;19927;-64
2022/08/07 08:17:51;;;;;;;;;;;25.30;84.40;;;;;;5078946;28;19908;-64
2022/08/07 08:20:17;;;;;;;;;;;25.30;84.50;;;;;;5096943;28;19915;-64
2022/08/07 08:28:20;;;;;;;;;;;25.30;84.40;;;;;;5096658;28;20408;-64
2022/08/07 08:30:48;;;;;;;;;;;25.30;84.30;;;;;;5078573;28;20003;-64
2022/08/07 08:33:17;;;;;;;;;;;25.30;84.20;;;;;;5096683;28;19969;-64
2022/08/07 08:35:46;;;;;;;;;;;25.30;84.20;;;;;;5078616;28;19974;-64
2022/08/07 08:38:13;;;;;;;;;;;25.30;84.70;;;;;;5078510;28;20328;-64
2022/08/07 08:40:42;;;;;;;;;;;25.40;84.10;;;;;;5095827;28;19908;-64
2022/08/07 08:43:13;;;;;;;;;;;25.30;84.10;;;;;;5096433;28;19908;-64
2022/08/07 08:45:38;;;;;;;;;;;25.30;84.00;;;;;;5096183;28;19916;-64
2022/08/07 08:48:23;;;;;;;;;;;25.40;84.00;;;;;;5096698;28;19912;-64
2022/08/07 08:50:54;;;;;;;;;;;25.40;83.90;;;;;;5096287;28;19908;-64
2022/08/07 08:53:20;;;;;;;;;;;25.30;83.90;;;;;;5078158;28;20053;-64
2022/08/07 08:55:51;;;;;;;;;;;25.30;83.90;;;;;;5096099;28;20267;-64
2022/08/07 08:58:30;;;;;;;;;;;25.40;83.90;;;;;;5096324;28;20041;-64
2022/08/07 09:01:02;;;;;;;;;;;25.40;83.90;;;;;;5095886;28;19961;-64
2022/08/07 09:03:38;;;;;;;;;;;25.40;83.80;;;;;;5096072;28;19908;-64
2022/08/07 09:06:09;;;;;;;;;;;25.40;83.80;;;;;;5095981;28;20013;-64
2022/08/07 09:08:44;;;;;;;;;;;25.40;83.80;;;;;;5095890;28;19920;-64
2022/08/07 09:11:18;;;;;;;;;;;25.40;83.80;;;;;;5096052;28;19961;-64
2022/08/07 09:14:02;;;;;;;;;;;25.40;83.70;;;;;;5077582;28;19915;-64
2022/08/07 09:16:46;;;;;;;;;;;25.40;83.80;;;;;;5077388;28;19908;-63
2022/08/07 09:19:12;;;;;;;;;;;25.40;83.70;;;;;;5095887;28;19908;-64
2022/08/07 09:21:40;;;;;;;;;;;25.40;83.80;;;;;;5095525;28;19908;-64
2022/08/07 09:24:24;;;;;;;;;;;25.40;83.80;;;;;;5077504;28;19957;-64
2022/08/07 09:26:56;;;;;;;;;;;25.40;83.80;;;;;;5077442;28;19920;-64
2022/08/07 09:29:26;;;;;;;;;;;25.40;83.70;;;;;;5095101;28;20386;-63
2022/08/07 09:32:01;;;;;;;;;;;25.40;83.70;;;;;;5095483;28;20057;-64
2022/08/07 09:34:46;;;;;;;;;;;25.40;83.70;;;;;;5095592;28;19915;-63
2022/08/07 09:37:30;;;;;;;;;;;25.40;83.70;;;;;;5077003;28;19908;-64
2022/08/07 09:40:13;;;;;;;;;;;25.40;83.60;;;;;;5095074;28;19908;-64
2022/08/07 09:42:59;;;;;;;;;;;25.40;83.50;;;;;;5094992;28;20026;-64
2022/08/07 09:45:33;;;;;;;;;;;25.40;83.50;;;;;;5077056;28;19999;-64
2022/08/07 09:48:14;;;;;;;;;;;25.40;83.50;;;;;;5077063;28;19913;-64
2022/08/07 09:50:39;;;;;;;;;;;25.40;83.60;;;;;;5095409;28;19943;-64
2022/08/07 09:53:07;;;;;;;;;;;25.40;83.50;;;;;;5076121;28;19915;-64
2022/08/07 09:56:12;;;;;;;;;;;25.40;83.40;;;;;;5095527;28;19908;-64
2022/08/07 09:58:51;;;;;;;;;;;25.40;83.40;;;;;;5032486;28;19909;-64
2022/08/07 10:01:29;;;;;;;;;;;25.40;83.30;;;;;;5032447;28;19936;-64
2022/08/07 10:04:07;;;;;;;;;;;25.40;83.40;;;;;;5062008;28;19977;-63
2022/08/07 10:06:51;;;;;;;;;;;25.40;83.50;;;;;;5094517;28;19923;-64
2022/08/07 10:09:28;;;;;;;;;;;25.40;83.40;;;;;;5094579;28;19912;-64
2022/08/07 10:12:18;;;;;;;;;;;25.40;83.50;;;;;;5094399;28;19908;-64
2022/08/07 10:15:12;;;;;;;;;;;25.50;83.50;;;;;;5094842;28;19989;-64
2022/08/07 10:17:51;;;;;;;;;;;25.40;83.50;;;;;;5076397;28;19990;-63
2022/08/07 10:20:36;;;;;;;;;;;25.40;83.60;;;;;;5094375;28;19915;-64
2022/08/07 10:23:23;;;;;;;;;;;25.40;83.60;;;;;;5094207;28;20382;-64
2022/08/07 10:26:06;;;;;;;;;;;25.40;83.50;;;;;;5076327;28;19912;-64
2022/08/07 10:28:37;;;;;;;;;;;25.40;83.50;;;;;;5076590;28;19916;-64
2022/08/07 10:31:06;;;;;;;;;;;25.40;83.40;;;;;;5076443;28;19915;-64
2022/08/07 10:33:47;;;;;;;;;;;25.40;83.50;;;;;;5076086;28;20404;-64
2022/08/07 10:36:31;;;;;;;;;;;25.40;83.50;;;;;;5076231;28;20366;-64
2022/08/07 10:38:59;;;;;;;;;;;25.40;83.30;;;;;;5094265;28;19916;-64
2022/08/07 10:41:28;;;;;;;;;;;25.40;83.50;;;;;;5076157;28;19908;-63
2022/08/07 10:44:01;;;;;;;;;;;25.40;83.50;;;;;;5094319;28;20297;-64
2022/08/07 10:46:29;;;;;;;;;;;25.40;83.50;;;;;;5094151;28;20019;-63
2022/08/07 10:49:13;;;;;;;;;;;25.40;83.60;;;;;;5075943;28;20015;-64
2022/08/07 10:51:41;;;;;;;;;;;25.40;83.60;;;;;;5094192;28;19909;-63
2022/08/07 10:54:14;;;;;;;;;;;25.40;83.60;;;;;;5093959;28;19908;-63
2022/08/07 10:56:45;;;;;;;;;;;25.40;83.50;;;;;;5076033;28;19915;-63
2022/08/07 10:59:23;;;;;;;;;;;25.40;83.50;;;;;;5075774;28;19923;-64
2022/08/07 11:01:52;;;;;;;;;;;25.40;83.40;;;;;;5093274;28;19920;-63
2022/08/07 11:04:34;;;;;;;;;;;25.50;83.50;;;;;;5075267;28;19908;-63
2022/08/07 11:07:05;;;;;;;;;;;25.40;83.50;;;;;;5093936;28;19912;-63
2022/08/07 11:09:35;;;;;;;;;;;25.40;83.50;;;;;;5094035;28;19995;-63
2022/08/07 11:12:09;;;;;;;;;;;25.40;83.50;;;;;;5093915;28;20009;-64
2022/08/07 11:14:35;;;;;;;;;;;25.40;83.40;;;;;;5076000;28;19916;-64
2022/08/07 11:17:11;;;;;;;;;;;25.40;83.30;;;;;;5093956;28;19912;-64
2022/08/07 11:19:56;;;;;;;;;;;25.40;83.10;;;;;;5094077;28;19912;-64
2022/08/07 11:22:28;;;;;;;;;;;25.50;83.30;;;;;;5075847;28;19916;-64
2022/08/07 11:24:59;;;;;;;;;;;25.40;83.30;;;;;;5093342;28;20007;-64
2022/08/07 11:27:27;;;;;;;;;;;25.40;83.30;;;;;;5093915;28;19916;-64
2022/08/07 11:30:03;;;;;;;;;;;25.40;83.20;;;;;;5093800;28;19912;-64
2022/08/07 11:32:32;;;;;;;;;;;25.50;83.20;;;;;;5093481;28;19912;-63
2022/08/07 11:35:00;;;;;;;;;;;25.40;83.10;;;;;;5093731;28;19955;-63
2022/08/07 11:37:32;;;;;;;;;;;25.40;83.10;;;;;;5075538;28;19947;-63
2022/08/07 11:40:16;;;;;;;;;;;25.40;83.10;;;;;;5093214;28;20271;-63
2022/08/07 11:42:50;;;;;;;;;;;25.40;83.00;;;;;;5075435;28;19909;-64
2022/08/07 11:45:21;;;;;;;;;;;25.40;83.00;;;;;;5093111;28;20252;-63
2022/08/07 11:47:47;;;;;;;;;;;25.40;82.90;;;;;;5075213;28;19924;-63
2022/08/07 11:50:21;;;;;;;;;;;25.40;83.00;;;;;;5075502;28;20012;-63
2022/08/07 11:53:08;;;;;;;;;;;25.40;83.00;;;;;;5093715;28;19915;-63
2022/08/07 11:55:46;;;;;;;;;;;25.40;82.90;;;;;;5093477;28;19915;-63
2022/08/07 11:58:25;;;;;;;;;;;25.40;82.90;;;;;;5075556;28;19908;-63
2022/08/07 12:01:09;;;;;;;;;;;25.40;83.00;;;;;;5093167;28;19908;-63
2022/08/07 12:03:48;;;;;;;;;;;25.40;83.00;;;;;;5093443;28;19912;-63
2022/08/07 12:06:23;;;;;;;;;;;25.40;83.00;;;;;;5093398;28;20251;-63
2022/08/07 12:08:54;;;;;;;;;;;25.40;83.00;;;;;;5093388;28;19912;-63
2022/08/07 12:11:22;;;;;;;;;;;25.40;83.00;;;;;;5075442;28;20024;-64
2022/08/07 12:13:50;;;;;;;;;;;25.40;82.90;;;;;;5075027;28;19909;-63
2022/08/07 12:16:39;;;;;;;;;;;25.40;82.90;;;;;;5095726;28;19961;-63
2022/08/07 12:19:12;;;;;;;;;;;25.40;82.90;;;;;;5096589;28;19951;-63
2022/08/07 12:21:38;;;;;;;;;;;25.40;82.90;;;;;;5097141;28;19908;-63
2022/08/07 12:24:16;;;;;;;;;;;25.40;82.90;;;;;;5097031;28;20304;-63
2022/08/07 12:26:44;;;;;;;;;;;25.40;82.90;;;;;;5097108;28;20014;-63
2022/08/07 12:29:19;;;;;;;;;;;25.40;83.40;;;;;;5096646;28;20382;-64
2022/08/07 12:31:58;;;;;;;;;;;25.40;82.90;;;;;;5096692;28;19984;-63
2022/08/07 12:34:25;;;;;;;;;;;25.40;82.90;;;;;;5078395;28;20006;-63
2022/08/07 12:36:51;;;;;;;;;;;25.40;82.80;;;;;;5096474;28;19908;-63
2022/08/07 12:39:18;;;;;;;;;;;25.40;82.70;;;;;;5096326;28;20282;-63
2022/08/07 12:41:44;;;;;;;;;;;25.40;82.70;;;;;;5078463;28;19954;-63
2022/08/07 12:44:10;;;;;;;;;;;25.40;82.80;;;;;;5096423;28;19912;-63
2022/08/07 12:47:04;;;;;;;;;;;25.40;82.80;;;;;;5096085;28;20316;-63
2022/08/07 12:49:49;;;;;;;;;;;25.40;82.90;;;;;;5024761;28;19913;-63
2022/08/07 12:52:17;;;;;;;;;;;25.40;82.80;;;;;;5078383;28;19955;-63
2022/08/07 12:54:59;;;;;;;;;;;25.40;82.70;;;;;;5096458;28;19912;-64
2022/08/07 12:57:29;;;;;;;;;;;25.40;82.70;;;;;;5096148;28;19908;-64
2022/08/07 12:59:55;;;;;;;;;;;25.40;82.70;;;;;;5078171;28;19916;-63
2022/08/07 13:02:22;;;;;;;;;;;25.40;82.70;;;;;;5078091;28;19920;-64
2022/08/07 13:05:05;;;;;;;;;;;25.40;82.70;;;;;;5095727;28;19908;-64
2022/08/07 13:07:50;;;;;;;;;;;25.40;82.80;;;;;;5095681;28;19988;-63
2022/08/07 13:10:34;;;;;;;;;;;25.30;82.80;;;;;;5096079;28;19908;-63
2022/08/07 13:13:14;;;;;;;;;;;25.40;83.30;;;;;;5095609;28;20428;-63
2022/08/07 13:15:41;;;;;;;;;;;25.30;82.70;;;;;;5095965;28;19915;-63
2022/08/07 13:18:26;;;;;;;;;;;25.40;82.80;;;;;;5077670;28;19908;-63
2022/08/07 13:20:57;;;;;;;;;;;25.30;82.60;;;;;;5095578;28;19908;-62
2022/08/07 13:23:27;;;;;;;;;;;25.30;82.60;;;;;;5077825;28;20248;-63
2022/08/07 13:25:54;;;;;;;;;;;25.30;82.70;;;;;;5095114;28;20015;-63
2022/08/07 13:28:25;;;;;;;;;;;25.30;82.70;;;;;;5095977;28;19912;-63
2022/08/07 13:30:57;;;;;;;;;;;25.30;82.70;;;;;;5095958;28;20347;-63
2022/08/07 13:33:27;;;;;;;;;;;25.30;82.70;;;;;;5095784;28;19912;-63
2022/08/07 13:36:02;;;;;;;;;;;25.40;82.60;;;;;;5095595;28;19916;-65
2022/08/07 13:38:40;;;;;;;;;;;25.40;82.60;;;;;;5095235;28;19909;-63
2022/08/07 13:41:35;;;;;;;;;;;25.40;82.70;;;;;;5094929;28;19908;-64
2022/08/07 13:44:01;;;;;;;;;;;25.40;82.70;;;;;;5081794;28;20377;-64
2022/08/07 13:46:29;;;;;;;;;;;25.40;82.80;;;;;;5095562;28;19918;-64
2022/08/07 13:48:57;;;;;;;;;;;25.40;82.90;;;;;;5095406;28;19912;-64
2022/08/07 13:51:24;;;;;;;;;;;25.30;82.80;;;;;;5095509;28;19912;-64
2022/08/07 13:53:52;;;;;;;;;;;25.40;82.90;;;;;;5076929;28;19909;-64
2022/08/07 13:56:20;;;;;;;;;;;25.40;82.70;;;;;;5094772;28;19908;-63
2022/08/07 13:59:02;;;;;;;;;;;25.30;82.70;;;;;;5076953;28;20328;-64
2022/08/07 14:01:32;;;;;;;;;;;25.40;82.90;;;;;;5094793;28;19926;-64
2022/08/07 14:04:00;;;;;;;;;;;25.40;82.90;;;;;;5095286;28;19908;-64
2022/08/07 14:06:30;;;;;;;;;;;25.40;82.90;;;;;;5095039;28;19931;-64
2022/08/07 14:08:56;;;;;;;;;;;25.40;82.90;;;;;;5076922;28;19919;-64
2022/08/07 14:11:25;;;;;;;;;;;25.40;82.90;;;;;;5076803;28;19966;-64
2022/08/07 14:13:54;;;;;;;;;;;25.40;82.80;;;;;;5094867;28;20424;-64
2022/08/07 14:16:23;;;;;;;;;;;25.40;82.80;;;;;;5076558;28;19942;-64
2022/08/07 14:18:50;;;;;;;;;;;25.40;82.90;;;;;;5094298;28;19965;-63
2022/08/07 14:21:16;;;;;;;;;;;25.40;82.90;;;;;;5094323;28;20346;-64
2022/08/07 14:23:54;;;;;;;;;;;25.30;82.80;;;;;;5094971;28;19908;-64
2022/08/07 14:26:21;;;;;;;;;;;25.30;82.80;;;;;;5094793;28;20358;-64
2022/08/07 14:28:48;;;;;;;;;;;25.40;82.90;;;;;;5094725;28;19919;-64
2022/08/07 14:31:15;;;;;;;;;;;25.40;82.90;;;;;;5094292;28;19966;-64
2022/08/07 14:33:41;;;;;;;;;;;25.40;83.00;;;;;;5076290;28;19948;-64
2022/08/07 14:36:06;;;;;;;;;;;25.30;82.90;;;;;;5094207;28;19916;-64